Terminal Aerodrome Forecast
Issued by NWS

Home | Current Version | Previous Version | Text Only | Print | Product List | Glossary On
Versions: 1 2 3 4 5 6 7 8 9 10 11 12 13 14 15 16 17
000
FTUS42 KTBW 271735
TAFRSW
TAF
KRSW 271735Z 2718/2818 VRB03KT P6SM VCTS SCT035CB BKN250
      TEMPO 2718/2720 2SM TSRA BKN025CB
     FM272000 23006KT P6SM VCTS SCT030CB BKN120
     FM280100 10004KT P6SM SCT030 BKN250
     FM280600 VRB03KT P6SM SCT250
     FM281500 12004KT P6SM VCTS SCT030CB SCT250=

USA.gov is the U.S. government's official web portal to all federal, state and local government web resources and services.